HAZ1752 ZHHH-ZUUU
Flight info
| Callsign | HAZ1752 |
|---|---|
| Flight time | 1h 42m |
| Altitude | 36100 |
| Route | GUGAM2E GUGAM W156 UPGUR W80 URGEG W231 EKOKA EKOKA2E |
| Aircraft | B738/M-SDE2E3FGHIRWXY/LB1 |
Departure
| Time | 2026-05-04 05:47 |
|---|---|
| Airport | Wuhan Tianhe International Airport (ZHHH) |
Arrival
| Time | 2026-05-04 07:29 |
|---|---|
| Airport | Chengdu Shuangliu International Airport (ZUUU) |
| Time | Latitude | Longitude | Altitude | Speed | Heading |
|---|---|---|---|---|---|
| 2026-05-04 05:31 | 30.77296 | 114.21925 | 107 ft | 0 kts | 222° |
| 2026-05-04 05:38 | 30.77298 | 114.21928 | 107 ft | 3 kts | 222° |
| 2026-05-04 05:38 | 30.77319 | 114.21948 | 105 ft | 4 kts | 221° |
| 2026-05-04 05:38 | 30.77339 | 114.21969 | 105 ft | 4 kts | 221° |
| 2026-05-04 05:39 | 30.77356 | 114.21984 | 104 ft | 4 kts | 191° |
| 2026-05-04 05:39 | 30.77396 | 114.21957 | 105 ft | 2 kts | 131° |
| 2026-05-04 05:39 | 30.77397 | 114.21956 | 106 ft | 0 kts | 131° |
| 2026-05-04 05:41 | 30.77390 | 114.21967 | 106 ft | 8 kts | 130° |
| 2026-05-04 05:42 | 30.77337 | 114.22038 | 106 ft | 16 kts | 130° |
| 2026-05-04 05:42 | 30.77243 | 114.22157 | 106 ft | 24 kts | 133° |
| 2026-05-04 05:42 | 30.77106 | 114.22183 | 107 ft | 24 kts | 220° |
| 2026-05-04 05:42 | 30.76966 | 114.22041 | 107 ft | 30 kts | 221° |
| 2026-05-04 05:43 | 30.76797 | 114.21868 | 107 ft | 35 kts | 221° |
| 2026-05-04 05:43 | 30.76602 | 114.21669 | 107 ft | 39 kts | 222° |
| 2026-05-04 05:43 | 30.76387 | 114.21452 | 107 ft | 33 kts | 222° |
| 2026-05-04 05:45 | 30.75926 | 114.21244 | 108 ft | 43 kts | 41° |
| 2026-05-04 05:45 | 30.76352 | 114.21676 | 105 ft | 118 kts | 41° |
| 2026-05-04 05:47 | 30.75274 | 114.25306 | 3347 ft | 230 kts | 246° |
| 2026-05-04 05:47 | 30.74728 | 114.23531 | 3836 ft | 242 kts | 250° |
| 2026-05-04 05:47 | 30.73990 | 114.21662 | 4213 ft | 261 kts | 240° |
| 2026-05-04 05:48 | 30.73032 | 114.19823 | 4885 ft | 268 kts | 234° |
| 2026-05-04 05:48 | 30.71914 | 114.18093 | 5672 ft | 269 kts | 228° |
| 2026-05-04 05:48 | 30.70666 | 114.16442 | 6382 ft | 273 kts | 225° |
| 2026-05-04 05:48 | 30.69335 | 114.14846 | 7080 ft | 276 kts | 223° |
| 2026-05-04 05:49 | 30.67942 | 114.13280 | 7780 ft | 280 kts | 221° |
| 2026-05-04 05:49 | 30.66526 | 114.11752 | 8520 ft | 283 kts | 221° |
| 2026-05-04 05:49 | 30.65051 | 114.10201 | 9267 ft | 288 kts | 221° |
| 2026-05-04 05:49 | 30.63549 | 114.08642 | 10012 ft | 291 kts | 221° |
| 2026-05-04 05:51 | 30.50834 | 113.95670 | 12925 ft | 378 kts | 222° |
| 2026-05-04 05:51 | 30.48844 | 113.93632 | 13593 ft | 382 kts | 225° |
| 2026-05-04 05:52 | 30.47103 | 113.91296 | 14200 ft | 385 kts | 234° |
| 2026-05-04 05:52 | 30.45525 | 113.88781 | 14858 ft | 387 kts | 235° |
| 2026-05-04 05:52 | 30.43937 | 113.86245 | 15547 ft | 389 kts | 235° |
| 2026-05-04 05:52 | 30.42586 | 113.83535 | 16184 ft | 389 kts | 250° |
| 2026-05-04 05:53 | 30.41662 | 113.80581 | 16887 ft | 390 kts | 251° |
| 2026-05-04 05:54 | 30.34965 | 113.59639 | 21166 ft | 397 kts | 251° |
| 2026-05-04 05:55 | 30.33992 | 113.56637 | 21723 ft | 398 kts | 251° |
| 2026-05-04 05:55 | 30.33028 | 113.53666 | 22235 ft | 399 kts | 251° |
| 2026-05-04 05:55 | 30.32045 | 113.50642 | 22744 ft | 401 kts | 251° |
| 2026-05-04 05:55 | 30.31061 | 113.47615 | 23227 ft | 402 kts | 251° |
| 2026-05-04 05:56 | 30.30071 | 113.44573 | 23691 ft | 404 kts | 251° |
| 2026-05-04 05:56 | 30.29078 | 113.41521 | 24084 ft | 405 kts | 251° |
| 2026-05-04 05:56 | 30.28094 | 113.38502 | 24484 ft | 406 kts | 251° |
| 2026-05-04 05:56 | 30.27098 | 113.35448 | 24873 ft | 406 kts | 251° |
| 2026-05-04 05:57 | 30.26097 | 113.32376 | 25256 ft | 407 kts | 251° |
| 2026-05-04 05:57 | 30.25096 | 113.29307 | 25624 ft | 408 kts | 251° |
| 2026-05-04 05:57 | 30.24092 | 113.26231 | 25984 ft | 410 kts | 251° |
| 2026-05-04 05:57 | 30.23081 | 113.23148 | 26342 ft | 411 kts | 250° |
| 2026-05-04 05:58 | 30.22109 | 113.20027 | 26673 ft | 411 kts | 256° |
| 2026-05-04 05:58 | 30.21678 | 113.16756 | 26978 ft | 412 kts | 268° |
| 2026-05-04 05:58 | 30.21809 | 113.13483 | 27340 ft | 413 kts | 272° |
| 2026-05-04 05:58 | 30.22040 | 113.10170 | 27671 ft | 414 kts | 273° |
| 2026-05-04 05:59 | 30.22290 | 113.06839 | 27943 ft | 416 kts | 273° |
| 2026-05-04 05:59 | 30.22537 | 113.03491 | 28216 ft | 418 kts | 273° |
| 2026-05-04 05:59 | 30.22775 | 113.00131 | 28502 ft | 419 kts | 272° |
| 2026-05-04 05:59 | 30.23006 | 112.96762 | 28847 ft | 419 kts | 272° |
| 2026-05-04 06:00 | 30.23226 | 112.93445 | 29296 ft | 417 kts | 272° |
| 2026-05-04 06:00 | 30.23443 | 112.90123 | 29796 ft | 413 kts | 272° |
| 2026-05-04 06:00 | 30.23656 | 112.86817 | 30262 ft | 410 kts | 272° |
| 2026-05-04 06:00 | 30.23867 | 112.83535 | 30635 ft | 408 kts | 272° |
| 2026-05-04 06:01 | 30.24075 | 112.80273 | 31014 ft | 406 kts | 272° |
| 2026-05-04 06:01 | 30.24282 | 112.77016 | 31397 ft | 404 kts | 272° |
| 2026-05-04 06:03 | 30.25682 | 112.54765 | 33975 ft | 389 kts | 272° |
| 2026-05-04 06:03 | 30.25875 | 112.51648 | 34272 ft | 387 kts | 272° |
| 2026-05-04 06:05 | 30.30567 | 112.30536 | 35577 ft | 395 kts | 285° |
| 2026-05-04 06:05 | 30.32379 | 112.24522 | 35923 ft | 394 kts | 285° |
| 2026-05-04 06:05 | 30.33279 | 112.21525 | 36119 ft | 394 kts | 285° |
| 2026-05-04 06:06 | 30.34178 | 112.18525 | 36127 ft | 396 kts | 285° |
| 2026-05-04 06:06 | 30.35982 | 112.12491 | 36140 ft | 395 kts | 285° |
| 2026-05-04 06:07 | 30.37767 | 112.06515 | 36136 ft | 393 kts | 285° |
| 2026-05-04 06:07 | 30.39551 | 112.00529 | 36136 ft | 393 kts | 285° |
| 2026-05-04 06:08 | 30.41329 | 111.94553 | 36138 ft | 392 kts | 285° |
| 2026-05-04 06:08 | 30.43107 | 111.88566 | 36138 ft | 393 kts | 285° |
| 2026-05-04 06:09 | 30.44885 | 111.82575 | 36134 ft | 393 kts | 285° |
| 2026-05-04 06:11 | 30.47714 | 111.57920 | 36128 ft | 391 kts | 266° |
| 2026-05-04 06:13 | 30.44990 | 111.32824 | 36127 ft | 393 kts | 262° |
| 2026-05-04 06:14 | 30.42082 | 111.11990 | 36133 ft | 394 kts | 262° |
| 2026-05-04 06:15 | 30.41202 | 111.05725 | 36146 ft | 393 kts | 262° |
| 2026-05-04 06:15 | 30.40323 | 110.99456 | 36138 ft | 394 kts | 262° |
| 2026-05-04 06:16 | 30.39446 | 110.93236 | 36146 ft | 394 kts | 262° |
| 2026-05-04 06:16 | 30.38558 | 110.86945 | 36154 ft | 394 kts | 262° |
| 2026-05-04 06:17 | 30.37664 | 110.80661 | 36157 ft | 395 kts | 262° |
| 2026-05-04 06:17 | 30.36774 | 110.74411 | 36150 ft | 394 kts | 262° |
| 2026-05-04 06:18 | 30.35881 | 110.68144 | 36074 ft | 392 kts | 261° |
| 2026-05-04 06:20 | 30.32269 | 110.43114 | 36176 ft | 397 kts | 262° |
| 2026-05-04 06:21 | 30.29995 | 110.27422 | 36161 ft | 392 kts | 261° |
| 2026-05-04 06:22 | 30.29075 | 110.21222 | 36163 ft | 392 kts | 262° |
| 2026-05-04 06:25 | 30.22549 | 109.77370 | 36168 ft | 396 kts | 261° |
| 2026-05-04 06:26 | 30.21565 | 109.71090 | 36161 ft | 397 kts | 261° |
| 2026-05-04 06:26 | 30.20588 | 109.64842 | 36172 ft | 397 kts | 261° |
| 2026-05-04 06:27 | 30.17027 | 109.49371 | 36164 ft | 401 kts | 256° |
| 2026-05-04 06:28 | 30.15417 | 109.43203 | 36169 ft | 401 kts | 256° |
| 2026-05-04 06:28 | 30.13784 | 109.37036 | 36158 ft | 400 kts | 255° |
| 2026-05-04 06:29 | 30.12150 | 109.30904 | 36167 ft | 397 kts | 256° |
| 2026-05-04 06:29 | 30.10537 | 109.24836 | 36166 ft | 398 kts | 256° |
| 2026-05-04 06:30 | 30.08893 | 109.18710 | 36184 ft | 401 kts | 255° |
| 2026-05-04 06:30 | 30.07207 | 109.12531 | 36159 ft | 403 kts | 255° |
| 2026-05-04 06:31 | 30.05521 | 109.06342 | 36163 ft | 403 kts | 255° |
| 2026-05-04 06:31 | 30.03854 | 109.00218 | 36166 ft | 402 kts | 255° |
| 2026-05-04 06:33 | 29.97323 | 108.75522 | 36176 ft | 403 kts | 256° |
| 2026-05-04 06:34 | 29.95689 | 108.69344 | 36176 ft | 400 kts | 256° |
| 2026-05-04 06:34 | 29.94056 | 108.63204 | 36178 ft | 399 kts | 256° |
| 2026-05-04 06:36 | 29.87524 | 108.38668 | 36188 ft | 407 kts | 256° |
| 2026-05-04 06:37 | 29.85845 | 108.32428 | 36181 ft | 408 kts | 256° |
| 2026-05-04 06:37 | 29.84166 | 108.26182 | 36181 ft | 407 kts | 256° |
| 2026-05-04 06:38 | 29.82496 | 108.19967 | 36184 ft | 405 kts | 256° |
| 2026-05-04 06:40 | 29.75821 | 107.95245 | 36183 ft | 405 kts | 256° |
| 2026-05-04 06:40 | 29.74141 | 107.89055 | 36164 ft | 404 kts | 256° |
| 2026-05-04 06:41 | 29.72472 | 107.82896 | 36186 ft | 403 kts | 256° |
| 2026-05-04 06:41 | 29.70813 | 107.76772 | 36181 ft | 402 kts | 256° |
| 2026-05-04 06:42 | 29.69146 | 107.70619 | 36198 ft | 402 kts | 257° |
| 2026-05-04 06:44 | 29.67819 | 107.45946 | 36188 ft | 394 kts | 286° |
| 2026-05-04 06:44 | 29.69442 | 107.39910 | 36168 ft | 395 kts | 285° |
| 2026-05-04 06:45 | 29.70867 | 107.33812 | 36155 ft | 394 kts | 282° |
| 2026-05-04 06:45 | 29.72078 | 107.27704 | 36164 ft | 395 kts | 282° |
| 2026-05-04 06:46 | 29.73781 | 107.21692 | 36180 ft | 397 kts | 294° |
| 2026-05-04 06:46 | 29.76761 | 107.16323 | 36165 ft | 404 kts | 305° |
| 2026-05-04 06:48 | 29.93621 | 106.98542 | 36162 ft | 411 kts | 311° |
| 2026-05-04 06:50 | 30.10469 | 106.80830 | 36169 ft | 410 kts | 312° |
| 2026-05-04 06:51 | 30.14681 | 106.76384 | 36164 ft | 410 kts | 312° |
| 2026-05-04 06:51 | 30.18913 | 106.71914 | 36163 ft | 411 kts | 312° |
| 2026-05-04 06:52 | 30.23115 | 106.67475 | 36161 ft | 411 kts | 312° |
| 2026-05-04 06:52 | 30.27347 | 106.62999 | 36166 ft | 410 kts | 312° |
| 2026-05-04 06:53 | 30.31541 | 106.58557 | 36156 ft | 410 kts | 312° |
| 2026-05-04 06:53 | 30.35753 | 106.54092 | 36158 ft | 410 kts | 312° |
| 2026-05-04 06:54 | 30.39963 | 106.49624 | 36155 ft | 410 kts | 312° |
| 2026-05-04 06:54 | 30.44146 | 106.45178 | 36149 ft | 410 kts | 312° |
| 2026-05-04 06:55 | 30.48353 | 106.40704 | 36148 ft | 410 kts | 312° |
| 2026-05-04 06:55 | 30.52567 | 106.36218 | 36148 ft | 410 kts | 313° |
| 2026-05-04 06:57 | 30.66769 | 106.15965 | 36145 ft | 405 kts | 300° |
| 2026-05-04 06:58 | 30.69816 | 106.10445 | 36149 ft | 406 kts | 300° |
| 2026-05-04 06:58 | 30.72505 | 106.04755 | 36142 ft | 404 kts | 287° |
| 2026-05-04 06:59 | 30.73474 | 105.98325 | 36147 ft | 406 kts | 273° |
| 2026-05-04 06:59 | 30.72781 | 105.91760 | 36140 ft | 411 kts | 264° |
| 2026-05-04 07:01 | 30.69580 | 105.69903 | 34259 ft | 412 kts | 264° |
| 2026-05-04 07:01 | 30.69111 | 105.66615 | 33635 ft | 410 kts | 264° |
| 2026-05-04 07:02 | 30.68651 | 105.63385 | 33005 ft | 408 kts | 264° |
| 2026-05-04 07:02 | 30.68188 | 105.60140 | 32384 ft | 406 kts | 264° |
| 2026-05-04 07:02 | 30.67725 | 105.56906 | 31770 ft | 405 kts | 264° |
| 2026-05-04 07:02 | 30.67263 | 105.53675 | 31170 ft | 403 kts | 264° |
| 2026-05-04 07:03 | 30.66804 | 105.50474 | 30585 ft | 401 kts | 264° |
| 2026-05-04 07:03 | 30.66346 | 105.47279 | 29984 ft | 400 kts | 264° |
| 2026-05-04 07:03 | 30.65888 | 105.44082 | 29288 ft | 402 kts | 263° |
| 2026-05-04 07:03 | 30.65432 | 105.40916 | 28647 ft | 403 kts | 263° |
| 2026-05-04 07:04 | 30.64965 | 105.37692 | 27990 ft | 405 kts | 263° |
| 2026-05-04 07:04 | 30.64493 | 105.34460 | 27345 ft | 408 kts | 263° |
| 2026-05-04 07:04 | 30.64003 | 105.31182 | 26729 ft | 415 kts | 263° |
| 2026-05-04 07:04 | 30.63500 | 105.27845 | 26116 ft | 420 kts | 263° |
| 2026-05-04 07:05 | 30.62961 | 105.24494 | 25511 ft | 423 kts | 258° |
| 2026-05-04 07:05 | 30.61873 | 105.21299 | 24919 ft | 427 kts | 244° |
| 2026-05-04 07:05 | 30.60150 | 105.18538 | 24356 ft | 428 kts | 233° |
| 2026-05-04 07:05 | 30.58202 | 105.15953 | 23795 ft | 424 kts | 232° |
| 2026-05-04 07:06 | 30.54293 | 105.10900 | 22475 ft | 416 kts | 232° |
| 2026-05-04 07:06 | 30.52383 | 105.08397 | 21827 ft | 412 kts | 232° |
| 2026-05-04 07:06 | 30.50506 | 105.05909 | 21190 ft | 409 kts | 232° |
| 2026-05-04 07:07 | 30.48643 | 105.03424 | 20575 ft | 406 kts | 232° |
| 2026-05-04 07:08 | 30.37558 | 104.85535 | 16258 ft | 383 kts | 253° |
| 2026-05-04 07:09 | 30.36756 | 104.82592 | 15643 ft | 381 kts | 253° |
| 2026-05-04 07:09 | 30.35957 | 104.79664 | 15045 ft | 378 kts | 253° |
| 2026-05-04 07:09 | 30.35167 | 104.76807 | 14457 ft | 376 kts | 253° |
| 2026-05-04 07:09 | 30.34361 | 104.73928 | 13870 ft | 374 kts | 252° |
| 2026-05-04 07:10 | 30.33562 | 104.71091 | 13233 ft | 372 kts | 252° |
| 2026-05-04 07:10 | 30.32755 | 104.68237 | 12585 ft | 370 kts | 252° |
| 2026-05-04 07:12 | 30.29373 | 104.50803 | 10072 ft | 272 kts | 295° |
| 2026-05-04 07:12 | 30.30367 | 104.49016 | 9890 ft | 265 kts | 309° |
| 2026-05-04 07:12 | 30.31759 | 104.47644 | 9524 ft | 262 kts | 324° |
| 2026-05-04 07:12 | 30.33311 | 104.46530 | 9010 ft | 265 kts | 327° |
| 2026-05-04 07:13 | 30.34918 | 104.45460 | 8564 ft | 265 kts | 328° |
| 2026-05-04 07:13 | 30.36517 | 104.44408 | 8157 ft | 264 kts | 328° |
| 2026-05-04 07:13 | 30.38108 | 104.43355 | 7761 ft | 262 kts | 328° |
| 2026-05-04 07:14 | 30.44173 | 104.39294 | 6599 ft | 243 kts | 328° |
| 2026-05-04 07:14 | 30.45628 | 104.38315 | 6300 ft | 239 kts | 328° |
| 2026-05-04 07:15 | 30.47054 | 104.37354 | 6118 ft | 233 kts | 328° |
| 2026-05-04 07:15 | 30.48441 | 104.36412 | 6041 ft | 233 kts | 328° |
| 2026-05-04 07:15 | 30.49827 | 104.35473 | 5957 ft | 234 kts | 328° |
| 2026-05-04 07:15 | 30.51247 | 104.34509 | 5882 ft | 234 kts | 328° |
| 2026-05-04 07:16 | 30.52654 | 104.33554 | 5794 ft | 233 kts | 328° |
| 2026-05-04 07:16 | 30.54055 | 104.32609 | 5732 ft | 236 kts | 328° |
| 2026-05-04 07:16 | 30.55473 | 104.31652 | 5633 ft | 235 kts | 328° |
| 2026-05-04 07:16 | 30.56888 | 104.30696 | 5553 ft | 234 kts | 327° |
| 2026-05-04 07:17 | 30.58283 | 104.29717 | 5434 ft | 228 kts | 328° |
| 2026-05-04 07:17 | 30.59647 | 104.28801 | 5402 ft | 231 kts | 328° |
| 2026-05-04 07:17 | 30.61051 | 104.27853 | 5289 ft | 233 kts | 329° |
| 2026-05-04 07:17 | 30.62258 | 104.26673 | 5161 ft | 225 kts | 298° |
| 2026-05-04 07:18 | 30.62889 | 104.25055 | 5128 ft | 219 kts | 288° |
| 2026-05-04 07:18 | 30.63443 | 104.23390 | 5030 ft | 222 kts | 288° |
| 2026-05-04 07:18 | 30.63973 | 104.21680 | 4934 ft | 226 kts | 285° |
| 2026-05-04 07:18 | 30.64557 | 104.19976 | 4900 ft | 227 kts | 292° |
| 2026-05-04 07:19 | 30.65174 | 104.18304 | 4906 ft | 223 kts | 290° |
| 2026-05-04 07:19 | 30.65759 | 104.16638 | 4880 ft | 222 kts | 289° |
| 2026-05-04 07:19 | 30.66428 | 104.15022 | 4878 ft | 223 kts | 309° |
| 2026-05-04 07:19 | 30.67690 | 104.14051 | 4898 ft | 223 kts | 346° |
| 2026-05-04 07:20 | 30.69205 | 104.14113 | 4959 ft | 219 kts | 17° |
| 2026-05-04 07:20 | 30.70683 | 104.14739 | 4876 ft | 230 kts | 23° |
| 2026-05-04 07:20 | 30.72172 | 104.15467 | 4931 ft | 234 kts | 24° |
| 2026-05-04 07:20 | 30.73691 | 104.16204 | 4930 ft | 242 kts | 24° |
| 2026-05-04 07:22 | 30.81877 | 104.14687 | 4619 ft | 203 kts | 257° |
| 2026-05-04 07:22 | 30.81551 | 104.13110 | 4544 ft | 199 kts | 251° |
| 2026-05-04 07:23 | 30.81181 | 104.11592 | 4493 ft | 187 kts | 250° |
| 2026-05-04 07:23 | 30.80839 | 104.10160 | 4471 ft | 186 kts | 252° |
| 2026-05-04 07:23 | 30.80496 | 104.08670 | 4462 ft | 192 kts | 252° |
| 2026-05-04 07:23 | 30.80149 | 104.07174 | 4376 ft | 195 kts | 252° |
| 2026-05-04 07:24 | 30.79680 | 104.05742 | 4237 ft | 185 kts | 226° |
| 2026-05-04 07:24 | 30.78664 | 104.04937 | 4275 ft | 178 kts | 209° |
| 2026-05-04 07:24 | 30.77575 | 104.04219 | 4207 ft | 184 kts | 208° |
| 2026-05-04 07:24 | 30.76461 | 104.03505 | 4198 ft | 183 kts | 205° |
| 2026-05-04 07:25 | 30.75316 | 104.02873 | 4158 ft | 181 kts | 203° |
| 2026-05-04 07:26 | 30.67626 | 103.99265 | 3441 ft | 147 kts | 201° |
| 2026-05-04 07:27 | 30.66660 | 103.98814 | 3179 ft | 149 kts | 198° |
| 2026-05-04 07:27 | 30.65724 | 103.98386 | 2992 ft | 143 kts | 199° |
| 2026-05-04 07:27 | 30.64810 | 103.97955 | 2836 ft | 144 kts | 199° |
| 2026-05-04 07:27 | 30.63862 | 103.97509 | 2618 ft | 149 kts | 200° |
| 2026-05-04 07:28 | 30.62892 | 103.97066 | 2367 ft | 149 kts | 200° |
| 2026-05-04 07:28 | 30.61935 | 103.96607 | 2147 ft | 150 kts | 200° |
| 2026-05-04 07:28 | 30.60973 | 103.96151 | 1953 ft | 147 kts | 199° |
| 2026-05-04 07:28 | 30.60046 | 103.95722 | 1780 ft | 141 kts | 199° |
| 2026-05-04 07:29 | 30.59133 | 103.95302 | 1667 ft | 141 kts | 199° |
| 2026-05-04 07:29 | 30.58337 | 103.94935 | 1646 ft | 86 kts | 203° |
| 2026-05-04 07:29 | 30.57934 | 103.94742 | 1646 ft | 49 kts | 202° |
| 2026-05-04 07:29 | 30.57635 | 103.94620 | 1645 ft | 43 kts | 191° |
| 2026-05-04 07:30 | 30.57431 | 103.94620 | 1646 ft | 19 kts | 175° |
| 2026-05-04 07:30 | 30.57327 | 103.94637 | 1646 ft | 14 kts | 176° |
| 2026-05-04 07:30 | 30.57234 | 103.94622 | 1646 ft | 13 kts | 199° |
| 2026-05-04 07:30 | 30.57148 | 103.94586 | 1646 ft | 13 kts | 199° |
| 2026-05-04 07:31 | 30.57063 | 103.94572 | 1646 ft | 12 kts | 159° |
| 2026-05-04 07:31 | 30.56993 | 103.94620 | 1646 ft | 12 kts | 148° |
| 2026-05-04 07:33 | 30.56907 | 103.95030 | 1646 ft | 0 kts | 25° |
| 2026-05-04 07:33 | 30.56911 | 103.95032 | 1646 ft | 1 kts | 25° |
| 2026-05-04 07:33 | 30.56916 | 103.95035 | 1646 ft | 0 kts | 25° |